Terminal Aerodrome Forecast
Issued by NWS Pueblo, CO

Current Version | Previous Version | Text Only | Print | Product List | Glossary On
Versions: 1 2 3 4 5 6 7 8 9 10 11 12 13 14 15 16 17 18 19 20 21 22 23 24 25 26 27 28 29 30 31 32 33 34 35 36 37 38 39 40 41 42 43 44
000
FTUS45 KPUB 041120
TAFCOS
TAF
KCOS 041120Z 0412/0512 VRB06KT P6SM FEW120 SCT200
     FM041700 17008KT P6SM FEW080 SCT120
     FM042100 28012KT P6SM VCTS SCT080CB BKN120
     FM050300 12007KT P6SM SCT120 BKN150
     FM050700 36006KT P6SM FEW120 SCT200=

USA.gov is the U.S. government's official web portal to all federal, state and local government web resources and services.